Mackinaw City, MI

3:26 AM EDT on May 25, 2015 (GMT -0400)
Mackinaw Bridge | | Change Station
CLOSE
Current Station
Personal Weather Station
Location: Mackinaw City, MI
Elevation: 587 ft
Nearby Weather Stations

Elev 587 ft 45.79 °N, 84.73 °W | Updated 11 minutes ago

Rain
Rain
70.9 °F
Feels Like 77 °F
N
0.0
Wind Variable Wind from North

Today
High -- | Low -- °F
--% Chance of Precip.
Yesterday
High -- | Low -- °F
Precip. -- in
5:57 AM 9:14 PM
Waxing Crescent, 46% visible
Pressure 30.00 in
Visibility 4.0 miles
Clouds Scattered Clouds 1300 ft
Mostly Cloudy 1800 ft
Overcast 6500 ft
Heat Index 77 °F
Dew Point 47 °F
Humidity 43%
Rainfall -999.00 in
Snow Depth Not available.
UV 0 out of 12
Pollen 9.70 out of 12
Air Quality Not available.
Flu Activity Sporadic
METAR KMCD 250715Z AUTO 10008KT 4SM -RA SCT013 BKN018 OVC065 11/11 A3000 RMK AO2 P0005 T01070107

More Conditions Fewer Conditions

Pressure 30.00 in
Visibility 4.0 miles
Clouds Scattered Clouds 1300 ft
Mostly Cloudy 1800 ft
Overcast 6500 ft
Heat Index 77 °F
Dew Point 47 °F
Humidity 43%
Rainfall -999.00 in
Snow Depth Not available.
UV 0 out of 12
Pollen 9.70 out of 12
Air Quality Not available.
Flu Activity Sporadic
METAR KMCD 250715Z AUTO 10008KT 4SM -RA SCT013 BKN018 OVC065 11/11 A3000 RMK AO2 P0005 T01070107

More Conditions Fewer Conditions

Nowcast | as of 3:00 am EDT on May 25, 2015

At 4 am...showers and slight chance of thunderstorms. Temperature 57. East winds 8 mph. At 6 am...showers and slight chance of thunderstorms. Temperature 58. East winds 8 mph. At 8 am...showers and slight chance of thunderstorms. Temperature 60. East winds 6 mph. At 10 am...showers and slight chance of thunderstorms. Temperature 63. South winds 6 mph.

×

10-Day Weather Forecast

Almanac

Astronomy

May. 25, 2015 Rise Set
Actual Time
Civil Twilight
Nautical Twilight
Astronomical Twilight
Moon
Length of Visible Light
Length of Day
Tomorrow will be .
, % of the Moon is Illuminated

Today's Extremes

State Highs State Lows

Community

WunderPhotos

Upload Photos

1,823,959 photos uploaded!

WunderBlogs® & News

Nearby

Air Quality

  Air Quality AQ Index Pollutant
Not available.

Snow Depth

Station Depth Elevation

Earthquake Activity

City Distance Mag. Time & Date
Minimum magnitude displayed is 2.5.

Coastal Water Temperatures

Place Temperature

Stations

Nearby Weather Stations

Station Location Temp. Windchill Dew Point Humidity Wind Precip. Elev Updated Type